createdAt,value
2023-05-09T00:00:13.782Z,27.67
2023-05-09T00:02:45.802Z,26.93
2023-05-09T00:05:15.138Z,28.23
2023-05-09T00:07:43.576Z,28.10
2023-05-09T00:10:11.966Z,28.17
2023-05-09T00:12:40.136Z,28.23
2023-05-09T00:15:09.277Z,28.97
2023-05-09T00:17:40.088Z,29.40
2023-05-09T00:20:12.561Z,28.23
2023-05-09T00:22:41.834Z,29.30
2023-05-09T00:25:11.740Z,28.50
2023-05-09T00:27:40.093Z,29.20
2023-05-09T00:30:09.572Z,30.67
2023-05-09T00:32:40.311Z,31.23
2023-05-09T00:35:09.953Z,31.83
2023-05-09T00:37:38.158Z,31.30
2023-05-09T00:40:09.280Z,30.30
2023-05-09T00:42:37.862Z,31.40
2023-05-09T00:45:07.089Z,32.13
2023-05-09T00:47:36.041Z,31.03
2023-05-09T00:50:07.403Z,30.30
2023-05-09T00:52:35.586Z,30.27
2023-05-09T00:55:04.791Z,29.73
2023-05-09T00:57:33.392Z,28.87
2023-05-09T01:00:01.895Z,31.03
2023-05-09T01:02:30.200Z,30.40
2023-05-09T01:04:58.606Z,29.33
2023-05-09T01:07:35.937Z,30.40
2023-05-09T01:10:09.182Z,31.40
2023-05-09T01:12:43.300Z,28.20
2023-05-09T01:15:19.500Z,29.20
2023-05-09T01:17:55.005Z,32.00
2023-05-09T01:20:29.880Z,31.60
2023-05-09T01:23:13.714Z,30.43
2023-05-09T01:25:55.920Z,32.03
2023-05-09T01:28:37.658Z,31.30
2023-05-09T01:31:08.489Z,30.70
2023-05-09T01:33:41.334Z,29.50
2023-05-09T01:36:13.840Z,30.00
2023-05-09T01:38:45.304Z,28.97
2023-05-09T01:41:16.623Z,31.57
2023-05-09T01:43:47.556Z,31.50
2023-05-09T01:46:19.273Z,30.30
2023-05-09T01:48:47.988Z,30.40
2023-05-09T01:51:17.596Z,29.60
2023-05-09T01:53:49.280Z,29.57
2023-05-09T01:56:18.529Z,30.83
2023-05-09T01:58:50.092Z,28.80
2023-05-09T02:01:20.900Z,31.10
2023-05-09T02:03:52.574Z,30.03
2023-05-09T02:06:23.263Z,29.47
2023-05-09T02:08:52.163Z,28.27
2023-05-09T02:11:20.294Z,30.13
2023-05-09T02:13:48.416Z,28.93
2023-05-09T02:16:17.251Z,27.90
2023-05-09T02:18:47.157Z,29.53
2023-05-09T02:21:15.330Z,28.83
2023-05-09T02:23:43.484Z,28.57
2023-05-09T02:26:12.262Z,30.10
2023-05-09T02:28:41.054Z,28.43
2023-05-09T02:31:10.798Z,28.80
2023-05-09T02:33:39.964Z,29.27
2023-05-09T02:36:11.080Z,27.93
2023-05-09T02:38:39.468Z,28.00
2023-05-09T02:41:08.131Z,28.37
2023-05-09T02:43:36.241Z,27.27
2023-05-09T02:46:04.583Z,27.60
2023-05-09T02:48:32.736Z,28.40
2023-05-09T02:51:00.861Z,29.90
2023-05-09T02:53:30.356Z,29.33
2023-05-09T02:55:58.656Z,33.37
2023-05-09T02:58:26.810Z,31.97
2023-05-09T03:00:54.956Z,31.40
2023-05-09T03:03:23.497Z,31.93
2023-05-09T03:05:51.657Z,31.47
2023-05-09T03:08:19.718Z,30.60
2023-05-09T03:10:49.228Z,31.67
2023-05-09T03:13:17.389Z,30.57
2023-05-09T03:15:45.607Z,30.93
2023-05-09T03:18:13.906Z,29.13
2023-05-09T03:20:42.136Z,31.57
2023-05-09T03:23:10.808Z,29.90
2023-05-09T03:25:38.932Z,31.43
2023-05-09T03:28:08.595Z,30.83
2023-05-09T03:30:36.786Z,29.60
2023-05-09T03:33:06.313Z,29.10
2023-05-09T03:35:34.486Z,29.80
2023-05-09T03:38:02.599Z,29.07
2023-05-09T03:40:33.302Z,28.80
2023-05-09T03:43:01.362Z,27.93
2023-05-09T03:45:30.943Z,29.33
2023-05-09T03:47:59.384Z,28.03
2023-05-09T03:50:27.579Z,27.43
2023-05-09T03:52:57.130Z,27.50
2023-05-09T03:55:25.341Z,27.53
2023-05-09T03:57:53.478Z,29.87
2023-05-09T04:00:22.463Z,29.43
2023-05-09T04:02:52.210Z,28.53
2023-05-09T04:05:20.536Z,30.00
2023-05-09T04:07:49.027Z,29.00
2023-05-09T04:10:17.197Z,30.80
2023-05-09T04:12:45.261Z,29.30
2023-05-09T04:15:13.746Z,28.50
2023-05-09T04:17:42.174Z,27.90
2023-05-09T04:20:14.013Z,28.33
2023-05-09T04:22:42.114Z,27.10
2023-05-09T04:25:12.540Z,27.50
2023-05-09T04:27:40.934Z,28.70
2023-05-09T04:30:10.470Z,28.80
2023-05-09T04:32:38.880Z,26.77
2023-05-09T04:35:08.449Z,28.20
2023-05-09T04:37:37.884Z,27.67
2023-05-09T04:40:08.233Z,27.33
2023-05-09T04:42:37.557Z,26.97
2023-05-09T04:45:06.674Z,26.33
2023-05-09T04:47:34.780Z,26.17
2023-05-09T04:50:02.902Z,26.53
2023-05-09T04:52:31.010Z,25.47
2023-05-09T04:55:01.036Z,25.33
2023-05-09T04:57:29.150Z,23.33
2023-05-09T04:59:57.409Z,22.13
2023-05-09T05:02:26.209Z,22.53
2023-05-09T05:05:02.992Z,23.27
2023-05-09T05:07:38.804Z,22.47
2023-05-09T05:10:09.603Z,22.97
2023-05-09T05:12:37.794Z,22.83
2023-05-09T05:15:06.954Z,21.63
2023-05-09T05:17:35.104Z,23.00
2023-05-09T05:20:06.354Z,22.27
2023-05-09T05:22:34.526Z,24.10
2023-05-09T05:25:03.607Z,22.43
2023-05-09T05:27:33.098Z,22.00
2023-05-09T05:30:01.253Z,22.60
2023-05-09T05:32:29.449Z,23.43
2023-05-09T05:34:57.597Z,21.83
2023-05-09T05:37:26.072Z,23.40
2023-05-09T05:39:54.464Z,23.17
2023-05-09T05:42:22.610Z,22.93
2023-05-09T05:44:52.103Z,23.03
2023-05-09T05:47:20.230Z,23.23
2023-05-09T05:49:48.866Z,22.93
2023-05-09T05:52:16.956Z,22.60
2023-05-09T05:54:45.036Z,23.33
2023-05-09T05:57:13.146Z,23.47
2023-05-09T05:59:41.257Z,23.70
2023-05-09T06:02:10.736Z,23.67
2023-05-09T06:04:38.878Z,25.47
2023-05-09T06:07:07.391Z,22.50
2023-05-09T06:09:35.600Z,24.63
2023-05-09T06:12:03.647Z,25.13
2023-05-09T06:14:31.794Z,24.93
2023-05-09T06:17:00.046Z,24.63
2023-05-09T06:19:29.601Z,24.67
2023-05-09T06:21:57.653Z,25.37
2023-05-09T06:24:35.765Z,23.70
2023-05-09T06:27:05.289Z,27.73
2023-05-09T06:29:33.435Z,24.53
2023-05-09T06:32:01.688Z,24.30
2023-05-09T06:34:31.147Z,25.07
2023-05-09T06:36:59.408Z,24.33
2023-05-09T06:39:27.684Z,23.03
2023-05-09T06:41:55.921Z,23.50
2023-05-09T06:44:23.915Z,24.23
2023-05-09T06:46:52.189Z,24.17
2023-05-09T06:49:20.319Z,25.67
2023-05-09T06:51:49.790Z,27.07
2023-05-09T06:54:18.231Z,28.20
2023-05-09T06:56:46.471Z,26.60
2023-05-09T06:59:16.531Z,24.87
2023-05-09T07:01:44.783Z,26.00
2023-05-09T07:04:12.962Z,24.80
2023-05-09T07:06:41.063Z,25.30
2023-05-09T07:09:11.149Z,25.73
2023-05-09T07:11:39.510Z,26.23
2023-05-09T07:14:07.632Z,24.60
2023-05-09T07:16:37.612Z,24.13
2023-05-09T07:19:06.015Z,24.13
2023-05-09T07:21:34.745Z,24.33
2023-05-09T07:24:02.929Z,23.77
2023-05-09T07:26:32.493Z,24.47
2023-05-09T07:29:00.631Z,24.23
2023-05-09T07:31:29.066Z,24.73
2023-05-09T07:33:57.203Z,24.27
2023-05-09T07:36:25.382Z,24.10
2023-05-09T07:38:54.522Z,23.03
2023-05-09T07:41:22.700Z,23.63
2023-05-09T07:43:52.216Z,24.23
2023-05-09T07:46:21.525Z,24.10
2023-05-09T07:48:49.923Z,23.47
2023-05-09T07:51:18.057Z,25.57
2023-05-09T07:53:46.522Z,24.30
2023-05-09T07:56:14.778Z,26.00
2023-05-09T07:58:42.881Z,25.43
2023-05-09T08:01:12.310Z,26.00
2023-05-09T08:03:40.502Z,25.83
2023-05-09T08:06:08.894Z,25.70
2023-05-09T08:08:38.901Z,25.73
2023-05-09T08:11:07.238Z,25.90
2023-05-09T08:13:35.322Z,25.90
2023-05-09T08:16:03.652Z,26.03
2023-05-09T08:18:33.384Z,27.17
2023-05-09T08:21:01.553Z,26.73
2023-05-09T08:23:30.308Z,26.67
2023-05-09T08:25:59.163Z,25.17
2023-05-09T08:28:28.793Z,26.97
2023-05-09T08:30:57.926Z,25.43
2023-05-09T08:33:26.408Z,24.73
2023-05-09T08:35:57.351Z,24.50
2023-05-09T08:38:26.114Z,25.30
2023-05-09T08:40:54.405Z,27.60
2023-05-09T08:43:25.059Z,26.20
2023-05-09T08:45:58.168Z,25.63
2023-05-09T08:48:27.839Z,25.47
2023-05-09T08:50:58.820Z,25.80
2023-05-09T08:53:27.197Z,26.80
2023-05-09T08:55:56.107Z,24.87
2023-05-09T08:58:24.815Z,24.00
2023-05-09T09:00:53.217Z,23.97
2023-05-09T09:03:21.956Z,22.97
2023-05-09T09:05:50.863Z,24.43
2023-05-09T09:08:20.949Z,23.67
2023-05-09T09:10:49.272Z,23.63
2023-05-09T09:13:19.000Z,23.30
2023-05-09T09:15:49.283Z,25.10
2023-05-09T09:18:28.643Z,23.17
2023-05-09T09:21:00.666Z,24.60
2023-05-09T09:23:31.521Z,24.40
2023-05-09T09:26:01.103Z,23.77
2023-05-09T09:28:29.993Z,24.30
2023-05-09T09:30:58.424Z,23.13
2023-05-09T09:33:28.098Z,24.33
2023-05-09T09:35:57.759Z,23.03
2023-05-09T09:38:29.681Z,23.43
2023-05-09T09:41:00.430Z,24.13
2023-05-09T09:43:29.967Z,23.20
2023-05-09T09:45:59.158Z,23.70
2023-05-09T09:48:27.717Z,23.40
2023-05-09T09:50:57.071Z,24.10
2023-05-09T09:53:30.241Z,22.97
2023-05-09T09:56:00.167Z,23.40
2023-05-09T09:58:28.294Z,22.90
2023-05-09T10:01:07.328Z,25.87
2023-05-09T10:03:39.680Z,25.13
2023-05-09T10:06:12.004Z,25.03
2023-05-09T10:08:40.260Z,25.40
2023-05-09T10:11:10.986Z,25.43
2023-05-09T10:13:41.348Z,24.80
2023-05-09T10:16:10.747Z,25.57
2023-05-09T10:18:40.567Z,24.97
2023-05-09T10:21:12.129Z,24.77
2023-05-09T10:23:45.787Z,25.80
2023-05-09T10:26:18.897Z,24.10
2023-05-09T10:28:49.012Z,24.73
2023-05-09T10:31:23.632Z,23.43
2023-05-09T10:33:52.526Z,23.40
2023-05-09T10:36:22.298Z,23.93
2023-05-09T10:38:50.912Z,22.80
2023-05-09T10:41:22.129Z,23.10
2023-05-09T10:43:50.438Z,22.57
2023-05-09T10:46:19.055Z,21.50
2023-05-09T10:48:48.881Z,22.67
2023-05-09T10:51:18.370Z,22.03
2023-05-09T10:53:48.195Z,21.13
2023-05-09T10:56:30.040Z,20.87
2023-05-09T10:58:58.466Z,21.20
2023-05-09T11:01:35.375Z,20.77
2023-05-09T11:04:11.299Z,20.90
2023-05-09T11:06:51.280Z,21.27
2023-05-09T11:09:28.456Z,21.33
2023-05-09T11:11:59.623Z,21.13
2023-05-09T11:14:32.392Z,20.90
2023-05-09T11:17:02.048Z,21.30
2023-05-09T11:19:58.751Z,20.47
2023-05-09T11:22:28.306Z,21.50
2023-05-09T11:25:06.036Z,20.53
2023-05-09T11:27:42.601Z,20.03
2023-05-09T11:30:12.649Z,20.07
2023-05-09T11:32:46.091Z,20.60
2023-05-09T11:35:16.977Z,21.30
2023-05-09T11:37:49.805Z,20.07
2023-05-09T11:40:19.626Z,19.90
2023-05-09T11:42:50.824Z,20.20
2023-05-09T11:45:19.258Z,19.90
2023-05-09T11:47:48.120Z,19.57
2023-05-09T11:50:18.112Z,20.30
2023-05-09T11:52:48.613Z,20.50
2023-05-09T11:55:19.109Z,20.23
2023-05-09T11:57:51.118Z,20.33
2023-05-09T12:00:21.093Z,20.47
2023-05-09T12:02:51.105Z,21.03
2023-05-09T12:05:20.703Z,20.70
2023-05-09T12:07:49.713Z,21.07
2023-05-09T12:10:21.147Z,20.90
2023-05-09T12:12:52.218Z,20.57
2023-05-09T12:15:21.520Z,21.53
2023-05-09T12:18:03.074Z,20.90
2023-05-09T12:20:41.913Z,21.73
2023-05-09T12:23:11.786Z,21.63
2023-05-09T12:25:40.054Z,20.63
2023-05-09T12:28:09.560Z,21.43
2023-05-09T12:30:37.834Z,21.17
2023-05-09T12:33:06.548Z,19.43
2023-05-09T12:35:35.647Z,19.40
2023-05-09T12:38:03.886Z,20.70
2023-05-09T12:40:31.978Z,20.63
2023-05-09T12:43:02.622Z,19.87
2023-05-09T12:45:33.708Z,21.00
2023-05-09T12:48:02.596Z,20.17
2023-05-09T12:50:35.902Z,19.90
2023-05-09T12:53:05.293Z,19.87
2023-05-09T12:55:41.170Z,19.83
2023-05-09T12:58:09.404Z,19.30
2023-05-09T13:00:46.596Z,19.33
2023-05-09T13:03:25.350Z,20.13
2023-05-09T13:05:57.886Z,19.93
2023-05-09T13:08:26.268Z,19.50
2023-05-09T13:11:03.920Z,19.93
2023-05-09T13:13:42.903Z,19.00
2023-05-09T13:16:14.215Z,19.53
2023-05-09T13:18:45.302Z,19.90
2023-05-09T13:21:13.476Z,19.40
2023-05-09T13:23:42.200Z,19.77
2023-05-09T13:26:11.440Z,19.37
2023-05-09T13:28:39.636Z,18.20
2023-05-09T13:31:08.458Z,18.60
2023-05-09T13:33:38.267Z,18.70
2023-05-09T13:36:07.519Z,18.57
2023-05-09T13:38:38.939Z,17.97
2023-05-09T13:41:07.401Z,17.40
2023-05-09T13:43:35.891Z,17.20
2023-05-09T13:46:04.302Z,16.90
2023-05-09T13:48:32.560Z,17.20
2023-05-09T13:51:02.302Z,16.80
2023-05-09T13:53:31.449Z,16.60
2023-05-09T13:55:59.663Z,17.20
2023-05-09T13:58:28.007Z,17.00
2023-05-09T14:00:56.181Z,16.30
2023-05-09T14:03:24.458Z,16.30
2023-05-09T14:05:52.708Z,16.37
2023-05-09T14:08:22.452Z,16.33
2023-05-09T14:10:51.437Z,16.37
2023-05-09T14:13:19.708Z,16.70
2023-05-09T14:15:47.934Z,16.53
2023-05-09T14:18:19.114Z,16.07
2023-05-09T14:20:49.137Z,17.27
2023-05-09T14:23:17.430Z,16.40
2023-05-09T14:25:47.458Z,16.10
2023-05-09T14:28:16.012Z,16.77
2023-05-09T14:30:44.240Z,16.50
2023-05-09T14:33:12.507Z,16.73
2023-05-09T14:35:41.775Z,16.20
2023-05-09T14:38:10.091Z,15.80
2023-05-09T14:40:38.294Z,16.13
2023-05-09T14:43:09.579Z,16.07
2023-05-09T14:45:37.744Z,17.60
2023-05-09T14:48:06.274Z,16.10
2023-05-09T14:50:34.634Z,16.43
2023-05-09T14:53:03.714Z,15.90
2023-05-09T14:55:32.593Z,15.87
2023-05-09T14:58:00.855Z,15.97
2023-05-09T15:00:30.774Z,16.03
2023-05-09T15:02:59.015Z,16.00
2023-05-09T15:05:27.414Z,16.80
2023-05-09T15:07:55.559Z,17.07
2023-05-09T15:10:24.099Z,16.90
2023-05-09T15:12:52.313Z,17.70
2023-05-09T15:15:23.413Z,17.40
2023-05-09T15:17:53.984Z,17.73
2023-05-09T15:20:22.371Z,17.83
2023-05-09T15:22:51.371Z,17.97
2023-05-09T15:25:19.808Z,17.10
2023-05-09T15:27:50.425Z,17.67
2023-05-09T15:30:18.666Z,18.00
2023-05-09T15:32:46.990Z,18.77
2023-05-09T15:35:18.352Z,17.67
2023-05-09T15:37:46.790Z,17.80
2023-05-09T15:40:15.417Z,17.17
2023-05-09T15:42:43.955Z,17.10
2023-05-09T15:45:12.509Z,17.80
2023-05-09T15:47:40.902Z,17.97
2023-05-09T15:50:10.716Z,17.50
2023-05-09T15:52:40.415Z,18.53
2023-05-09T15:55:10.268Z,18.20
2023-05-09T15:57:38.567Z,17.93
2023-05-09T16:00:08.124Z,17.00
2023-05-09T16:02:36.474Z,17.43
2023-05-09T16:05:04.855Z,17.37
2023-05-09T16:07:35.378Z,17.37
2023-05-09T16:10:06.286Z,18.00
2023-05-09T16:12:34.421Z,17.57
2023-05-09T16:15:02.829Z,17.43
2023-05-09T16:17:31.631Z,16.80
2023-05-09T16:20:00.067Z,17.00
2023-05-09T16:22:28.290Z,17.47
2023-05-09T16:24:56.372Z,16.87
2023-05-09T16:27:25.973Z,17.30
2023-05-09T16:29:54.194Z,17.20
2023-05-09T16:32:22.432Z,16.83
2023-05-09T16:34:50.568Z,17.10
2023-05-09T16:37:20.006Z,17.33
2023-05-09T16:39:48.387Z,17.33
2023-05-09T16:42:16.447Z,16.80
2023-05-09T16:44:45.970Z,16.73
2023-05-09T16:47:14.213Z,16.93
2023-05-09T16:49:42.384Z,17.10
2023-05-09T16:52:10.541Z,16.87
2023-05-09T16:54:38.846Z,16.50
2023-05-09T16:57:07.001Z,16.20
2023-05-09T16:59:35.288Z,17.17
2023-05-09T17:02:05.132Z,16.50
2023-05-09T17:04:34.820Z,15.93
2023-05-09T17:07:05.008Z,15.77
2023-05-09T17:09:33.520Z,16.57
2023-05-09T17:12:01.617Z,16.70
2023-05-09T17:14:29.935Z,17.03
2023-05-09T17:16:58.699Z,17.20
2023-05-09T17:19:28.417Z,17.80
2023-05-09T17:21:58.917Z,17.60
2023-05-09T17:24:27.294Z,17.80
2023-05-09T17:26:56.606Z,17.50
2023-05-09T17:29:24.777Z,17.67
2023-05-09T17:31:52.882Z,17.80
2023-05-09T17:34:21.311Z,17.33
2023-05-09T17:36:52.303Z,18.00
2023-05-09T17:39:20.572Z,18.77
2023-05-09T17:41:48.693Z,18.70
2023-05-09T17:44:16.817Z,18.73
2023-05-09T17:46:45.001Z,18.07
2023-05-09T17:49:14.194Z,17.80
2023-05-09T17:51:42.486Z,17.70
2023-05-09T17:54:12.880Z,18.87
2023-05-09T17:56:41.056Z,18.17
2023-05-09T17:59:09.184Z,18.33
2023-05-09T18:01:37.610Z,18.03
2023-05-09T18:04:06.290Z,18.00
2023-05-09T18:06:34.449Z,17.90
2023-05-09T18:09:03.201Z,19.13
2023-05-09T18:11:32.800Z,17.93
2023-05-09T18:14:00.990Z,17.57
2023-05-09T18:16:29.180Z,17.57
2023-05-09T18:18:59.234Z,17.70
2023-05-09T18:21:28.665Z,17.20
2023-05-09T18:23:57.233Z,18.03
2023-05-09T18:26:25.499Z,17.60
2023-05-09T18:28:55.105Z,17.70
2023-05-09T18:31:23.471Z,19.80
2023-05-09T18:33:51.675Z,20.27
2023-05-09T18:36:20.704Z,16.97
2023-05-09T18:38:49.161Z,17.70
2023-05-09T18:41:18.247Z,16.80
2023-05-09T18:43:46.863Z,16.80
2023-05-09T18:46:20.054Z,17.37
2023-05-09T18:48:50.199Z,16.83
2023-05-09T18:51:18.629Z,17.07
2023-05-09T18:53:47.685Z,17.30
2023-05-09T18:56:17.443Z,17.27
2023-05-09T18:58:45.661Z,17.53
2023-05-09T19:01:13.956Z,17.43
2023-05-09T19:03:46.109Z,16.30
2023-05-09T19:06:16.714Z,17.13
2023-05-09T19:08:45.143Z,16.90
2023-05-09T19:11:13.701Z,17.10
2023-05-09T19:13:48.571Z,16.70
2023-05-09T19:16:20.545Z,17.33
2023-05-09T19:18:50.226Z,17.17
2023-05-09T19:21:18.894Z,16.53
2023-05-09T19:23:50.736Z,16.33
2023-05-09T19:26:22.132Z,16.73
2023-05-09T19:28:50.331Z,17.00
2023-05-09T19:31:20.529Z,16.80
2023-05-09T19:33:50.600Z,17.73
2023-05-09T19:36:18.947Z,16.93
2023-05-09T19:38:47.136Z,17.10
2023-05-09T19:41:15.342Z,16.50
2023-05-09T19:43:43.552Z,17.20
2023-05-09T19:46:11.882Z,16.00
2023-05-09T19:48:40.064Z,16.47
2023-05-09T19:51:12.333Z,16.80
2023-05-09T19:53:41.306Z,16.80
2023-05-09T19:56:09.967Z,16.20
2023-05-09T19:58:38.119Z,16.30
2023-05-09T20:01:07.226Z,16.73
2023-05-09T20:03:36.971Z,16.27
2023-05-09T20:06:05.931Z,16.27
2023-05-09T20:08:37.962Z,16.63
2023-05-09T20:11:06.474Z,16.70
2023-05-09T20:13:34.762Z,17.90
2023-05-09T20:16:04.046Z,17.57
2023-05-09T20:18:33.615Z,17.67
2023-05-09T20:21:01.921Z,17.43
2023-05-09T20:23:31.149Z,17.30
2023-05-09T20:26:01.431Z,16.60
2023-05-09T20:28:29.685Z,16.70
2023-05-09T20:30:57.956Z,16.93
2023-05-09T20:33:26.126Z,16.23
2023-05-09T20:35:54.333Z,16.67
2023-05-09T20:38:22.989Z,18.00
2023-05-09T20:40:51.087Z,16.53
2023-05-09T20:43:21.192Z,16.20
2023-05-09T20:45:50.450Z,17.63
2023-05-09T20:48:19.194Z,17.17
2023-05-09T20:50:47.596Z,16.63
2023-05-09T20:53:16.576Z,16.40
2023-05-09T20:55:44.840Z,17.10
2023-05-09T20:58:14.831Z,17.33
2023-05-09T21:00:46.955Z,16.57
2023-05-09T21:03:15.558Z,16.00
2023-05-09T21:05:43.910Z,16.00
2023-05-09T21:08:24.329Z,16.77
2023-05-09T21:10:54.456Z,16.43
2023-05-09T21:16:25.146Z,17.57
2023-05-09T21:19:10.967Z,16.57
2023-05-09T21:21:39.258Z,17.13
2023-05-09T21:24:09.290Z,16.90
2023-05-09T21:26:54.438Z,15.80
2023-05-09T21:29:49.967Z,16.20
2023-05-09T21:35:59.710Z,16.83
2023-05-09T21:41:48.759Z,15.93
2023-05-09T21:44:48.352Z,15.83
2023-05-09T21:47:45.604Z,15.83
2023-05-09T21:53:53.609Z,16.47
2023-05-09T21:56:43.124Z,15.53
2023-05-09T21:59:49.672Z,15.70
2023-05-09T22:02:43.047Z,15.70
2023-05-09T22:05:51.094Z,15.90
2023-05-09T22:08:42.761Z,17.10
2023-05-09T22:11:14.940Z,16.10
2023-05-09T22:14:12.494Z,15.50
2023-05-09T22:16:41.274Z,15.60
2023-05-09T22:19:47.217Z,15.77
2023-05-09T22:22:16.884Z,15.97
2023-05-09T22:25:28.030Z,16.37
2023-05-09T22:28:03.815Z,16.23
2023-05-09T22:30:47.302Z,15.97
2023-05-09T22:33:53.322Z,16.10
2023-05-09T22:39:42.171Z,15.80
2023-05-09T22:42:27.590Z,16.03
2023-05-09T22:45:12.952Z,15.57
2023-05-09T22:48:02.140Z,15.93
2023-05-09T22:50:55.347Z,16.23
2023-05-09T22:53:25.187Z,15.50
2023-05-09T22:56:04.455Z,15.37
2023-05-09T22:59:00.358Z,15.63
2023-05-09T23:01:40.490Z,15.47
2023-05-09T23:04:20.142Z,15.60
2023-05-09T23:06:55.211Z,16.13
2023-05-09T23:09:23.707Z,15.57
2023-05-09T23:12:17.904Z,15.90
2023-05-09T23:15:07.415Z,15.50
2023-05-09T23:17:47.028Z,15.83
2023-05-09T23:20:28.207Z,16.10
2023-05-09T23:23:26.710Z,15.50
2023-05-09T23:26:11.957Z,15.80
2023-05-09T23:28:52.437Z,15.90
2023-05-09T23:31:37.108Z,15.90
2023-05-09T23:34:40.759Z,15.80
2023-05-09T23:37:31.004Z,15.63
2023-05-09T23:40:20.329Z,16.50
2023-05-09T23:43:09.002Z,15.90
2023-05-09T23:45:45.466Z,16.10
2023-05-09T23:48:20.657Z,16.43
2023-05-09T23:50:59.302Z,16.30
2023-05-09T23:53:35.356Z,16.70
2023-05-09T23:59:29.372Z,17.07
